sensor_id;sensor_type;location;lat;lon;timestamp;P1;durP1;ratioP1;P2;durP2;ratioP2
2928;SDS011;1474;51.460;7.150;2024-02-26T00:00:50;1.88;;;1.15;;
2928;SDS011;1474;51.460;7.150;2024-02-26T00:03:35;1.30;;;0.95;;
2928;SDS011;1474;51.460;7.150;2024-02-26T00:06:20;2.05;;;0.98;;
2928;SDS011;1474;51.460;7.150;2024-02-26T00:09:04;1.98;;;0.88;;
2928;SDS011;1474;51.460;7.150;2024-02-26T00:11:50;2.53;;;1.35;;
2928;SDS011;1474;51.460;7.150;2024-02-26T00:14:34;5.03;;;1.10;;
2928;SDS011;1474;51.460;7.150;2024-02-26T00:17:19;1.95;;;1.10;;
2928;SDS011;1474;51.460;7.150;2024-02-26T00:20:04;1.38;;;1.17;;
2928;SDS011;1474;51.460;7.150;2024-02-26T00:22:52;1.30;;;1.20;;
2928;SDS011;1474;51.460;7.150;2024-02-26T00:25:36;2.80;;;1.42;;
2928;SDS011;1474;51.460;7.150;2024-02-26T00:28:21;2.53;;;1.48;;
2928;SDS011;1474;51.460;7.150;2024-02-26T00:31:06;1.63;;;1.30;;
2928;SDS011;1474;51.460;7.150;2024-02-26T00:33:50;2.53;;;1.35;;
2928;SDS011;1474;51.460;7.150;2024-02-26T00:36:35;2.28;;;1.20;;
2928;SDS011;1474;51.460;7.150;2024-02-26T00:39:19;1.40;;;1.05;;
2928;SDS011;1474;51.460;7.150;2024-02-26T00:42:04;1.80;;;1.20;;
2928;SDS011;1474;51.460;7.150;2024-02-26T00:44:49;0.80;;;0.80;;
2928;SDS011;1474;51.460;7.150;2024-02-26T00:47:33;1.63;;;1.08;;
2928;SDS011;1474;51.460;7.150;2024-02-26T00:50:18;3.38;;;1.60;;
2928;SDS011;1474;51.460;7.150;2024-02-26T00:53:02;1.50;;;1.10;;
2928;SDS011;1474;51.460;7.150;2024-02-26T00:55:47;1.52;;;1.20;;
2928;SDS011;1474;51.460;7.150;2024-02-26T00:58:32;4.15;;;1.40;;
2928;SDS011;1474;51.460;7.150;2024-02-26T01:01:17;2.60;;;1.30;;
2928;SDS011;1474;51.460;7.150;2024-02-26T01:04:02;1.45;;;0.95;;
2928;SDS011;1474;51.460;7.150;2024-02-26T01:06:47;2.92;;;1.10;;
2928;SDS011;1474;51.460;7.150;2024-02-26T01:09:31;2.10;;;1.10;;
2928;SDS011;1474;51.460;7.150;2024-02-26T01:12:16;3.15;;;1.10;;
2928;SDS011;1474;51.460;7.150;2024-02-26T01:15:01;1.98;;;1.00;;
2928;SDS011;1474;51.460;7.150;2024-02-26T01:17:49;1.38;;;1.10;;
2928;SDS011;1474;51.460;7.150;2024-02-26T01:20:34;2.00;;;1.17;;
2928;SDS011;1474;51.460;7.150;2024-02-26T01:23:20;1.42;;;1.20;;
2928;SDS011;1474;51.460;7.150;2024-02-26T01:26:05;2.00;;;1.35;;
2928;SDS011;1474;51.460;7.150;2024-02-26T01:28:49;1.10;;;0.85;;
2928;SDS011;1474;51.460;7.150;2024-02-26T01:31:34;1.35;;;1.00;;
2928;SDS011;1474;51.460;7.150;2024-02-26T01:34:19;1.40;;;1.20;;
2928;SDS011;1474;51.460;7.150;2024-02-26T01:37:04;1.95;;;1.27;;
2928;SDS011;1474;51.460;7.150;2024-02-26T01:39:48;2.72;;;1.02;;
2928;SDS011;1474;51.460;7.150;2024-02-26T01:42:33;2.13;;;1.27;;
2928;SDS011;1474;51.460;7.150;2024-02-26T01:45:17;2.22;;;1.10;;
2928;SDS011;1474;51.460;7.150;2024-02-26T01:48:08;1.85;;;1.35;;
2928;SDS011;1474;51.460;7.150;2024-02-26T01:50:54;2.72;;;1.27;;
2928;SDS011;1474;51.460;7.150;2024-02-26T01:53:39;2.80;;;1.33;;
2928;SDS011;1474;51.460;7.150;2024-02-26T01:56:24;2.22;;;1.38;;
2928;SDS011;1474;51.460;7.150;2024-02-26T01:59:14;1.85;;;1.48;;
2928;SDS011;1474;51.460;7.150;2024-02-26T02:01:58;1.83;;;1.20;;
2928;SDS011;1474;51.460;7.150;2024-02-26T02:04:45;1.92;;;1.60;;
2928;SDS011;1474;51.460;7.150;2024-02-26T02:07:30;2.50;;;1.70;;
2928;SDS011;1474;51.460;7.150;2024-02-26T02:10:15;1.73;;;1.48;;
2928;SDS011;1474;51.460;7.150;2024-02-26T02:13:02;2.58;;;1.40;;
2928;SDS011;1474;51.460;7.150;2024-02-26T02:15:46;2.15;;;1.67;;
2928;SDS011;1474;51.460;7.150;2024-02-26T02:18:31;2.25;;;1.77;;
2928;SDS011;1474;51.460;7.150;2024-02-26T02:21:16;2.85;;;1.55;;
2928;SDS011;1474;51.460;7.150;2024-02-26T02:24:01;2.45;;;1.58;;
2928;SDS011;1474;51.460;7.150;2024-02-26T02:26:45;1.45;;;1.25;;
2928;SDS011;1474;51.460;7.150;2024-02-26T02:29:30;1.45;;;1.35;;
2928;SDS011;1474;51.460;7.150;2024-02-26T02:32:14;2.75;;;1.58;;
2928;SDS011;1474;51.460;7.150;2024-02-26T02:35:00;1.92;;;1.48;;
2928;SDS011;1474;51.460;7.150;2024-02-26T02:37:45;2.17;;;1.30;;
2928;SDS011;1474;51.460;7.150;2024-02-26T02:40:29;2.17;;;1.10;;
2928;SDS011;1474;51.460;7.150;2024-02-26T02:43:14;1.80;;;1.33;;
2928;SDS011;1474;51.460;7.150;2024-02-26T02:45:59;2.03;;;1.25;;
2928;SDS011;1474;51.460;7.150;2024-02-26T02:48:43;1.90;;;1.30;;
2928;SDS011;1474;51.460;7.150;2024-02-26T02:51:28;1.50;;;1.25;;
2928;SDS011;1474;51.460;7.150;2024-02-26T02:54:12;2.42;;;1.30;;
2928;SDS011;1474;51.460;7.150;2024-02-26T02:56:57;2.03;;;1.30;;
2928;SDS011;1474;51.460;7.150;2024-02-26T02:59:42;2.70;;;1.50;;
2928;SDS011;1474;51.460;7.150;2024-02-26T03:02:26;4.22;;;1.20;;
2928;SDS011;1474;51.460;7.150;2024-02-26T03:05:11;2.83;;;1.00;;
2928;SDS011;1474;51.460;7.150;2024-02-26T03:07:56;1.65;;;1.15;;
2928;SDS011;1474;51.460;7.150;2024-02-26T03:10:41;1.17;;;0.85;;
2928;SDS011;1474;51.460;7.150;2024-02-26T03:13:27;1.25;;;1.00;;
2928;SDS011;1474;51.460;7.150;2024-02-26T03:16:11;1.52;;;1.15;;
2928;SDS011;1474;51.460;7.150;2024-02-26T03:18:56;1.35;;;1.13;;
2928;SDS011;1474;51.460;7.150;2024-02-26T03:21:41;1.63;;;1.10;;
2928;SDS011;1474;51.460;7.150;2024-02-26T03:24:25;2.20;;;1.13;;
2928;SDS011;1474;51.460;7.150;2024-02-26T03:27:10;4.32;;;1.20;;
2928;SDS011;1474;51.460;7.150;2024-02-26T03:29:54;1.40;;;0.98;;
2928;SDS011;1474;51.460;7.150;2024-02-26T03:32:39;1.35;;;1.13;;
2928;SDS011;1474;51.460;7.150;2024-02-26T03:35:23;1.33;;;1.23;;
2928;SDS011;1474;51.460;7.150;2024-02-26T03:38:08;1.65;;;1.50;;
2928;SDS011;1474;51.460;7.150;2024-02-26T03:40:52;1.60;;;1.30;;
2928;SDS011;1474;51.460;7.150;2024-02-26T03:43:37;2.55;;;1.50;;
2928;SDS011;1474;51.460;7.150;2024-02-26T03:46:22;1.27;;;1.17;;
2928;SDS011;1474;51.460;7.150;2024-02-26T03:49:06;2.80;;;1.40;;
2928;SDS011;1474;51.460;7.150;2024-02-26T03:51:51;1.52;;;1.30;;
2928;SDS011;1474;51.460;7.150;2024-02-26T03:54:35;4.78;;;1.50;;
2928;SDS011;1474;51.460;7.150;2024-02-26T03:57:20;2.05;;;1.80;;
2928;SDS011;1474;51.460;7.150;2024-02-26T04:00:05;2.25;;;1.60;;
2928;SDS011;1474;51.460;7.150;2024-02-26T04:02:50;2.28;;;1.42;;
2928;SDS011;1474;51.460;7.150;2024-02-26T04:05:34;2.15;;;1.70;;
2928;SDS011;1474;51.460;7.150;2024-02-26T04:08:19;5.88;;;1.50;;
2928;SDS011;1474;51.460;7.150;2024-02-26T04:11:03;2.08;;;1.65;;
2928;SDS011;1474;51.460;7.150;2024-02-26T04:13:51;1.52;;;1.33;;
2928;SDS011;1474;51.460;7.150;2024-02-26T04:16:36;2.67;;;1.83;;
2928;SDS011;1474;51.460;7.150;2024-02-26T04:19:20;3.00;;;1.80;;
2928;SDS011;1474;51.460;7.150;2024-02-26T04:22:05;3.33;;;2.00;;
2928;SDS011;1474;51.460;7.150;2024-02-26T04:24:50;2.10;;;1.52;;
2928;SDS011;1474;51.460;7.150;2024-02-26T04:27:34;2.58;;;1.70;;
2928;SDS011;1474;51.460;7.150;2024-02-26T04:30:19;2.33;;;1.58;;
2928;SDS011;1474;51.460;7.150;2024-02-26T04:33:04;1.85;;;1.45;;
2928;SDS011;1474;51.460;7.150;2024-02-26T04:35:48;2.15;;;1.67;;
2928;SDS011;1474;51.460;7.150;2024-02-26T04:38:33;1.38;;;1.15;;
2928;SDS011;1474;51.460;7.150;2024-02-26T04:41:18;3.80;;;1.73;;
2928;SDS011;1474;51.460;7.150;2024-02-26T04:44:02;1.58;;;1.33;;
2928;SDS011;1474;51.460;7.150;2024-02-26T04:46:47;2.90;;;1.33;;
2928;SDS011;1474;51.460;7.150;2024-02-26T04:49:32;1.88;;;1.40;;
2928;SDS011;1474;51.460;7.150;2024-02-26T04:52:18;1.67;;;1.40;;
2928;SDS011;1474;51.460;7.150;2024-02-26T04:55:03;1.60;;;1.48;;
2928;SDS011;1474;51.460;7.150;2024-02-26T04:57:48;2.97;;;1.88;;
2928;SDS011;1474;51.460;7.150;2024-02-26T05:00:33;3.88;;;2.03;;
2928;SDS011;1474;51.460;7.150;2024-02-26T05:03:17;2.05;;;1.90;;
2928;SDS011;1474;51.460;7.150;2024-02-26T05:06:02;2.08;;;1.70;;
2928;SDS011;1474;51.460;7.150;2024-02-26T05:08:46;2.00;;;1.50;;
2928;SDS011;1474;51.460;7.150;2024-02-26T05:11:31;1.88;;;1.77;;
2928;SDS011;1474;51.460;7.150;2024-02-26T05:14:16;2.30;;;1.58;;
2928;SDS011;1474;51.460;7.150;2024-02-26T05:17:01;1.50;;;1.27;;
2928;SDS011;1474;51.460;7.150;2024-02-26T05:19:45;2.17;;;1.50;;
2928;SDS011;1474;51.460;7.150;2024-02-26T05:22:30;2.20;;;1.63;;
2928;SDS011;1474;51.460;7.150;2024-02-26T05:25:15;1.42;;;1.23;;
2928;SDS011;1474;51.460;7.150;2024-02-26T05:28:00;2.55;;;1.75;;
2928;SDS011;1474;51.460;7.150;2024-02-26T05:30:44;2.15;;;1.50;;
2928;SDS011;1474;51.460;7.150;2024-02-26T05:33:29;2.60;;;1.48;;
2928;SDS011;1474;51.460;7.150;2024-02-26T05:36:20;2.10;;;1.42;;
2928;SDS011;1474;51.460;7.150;2024-02-26T05:39:06;1.85;;;1.40;;
2928;SDS011;1474;51.460;7.150;2024-02-26T05:41:53;3.42;;;1.77;;
2928;SDS011;1474;51.460;7.150;2024-02-26T05:44:37;3.08;;;1.92;;
2928;SDS011;1474;51.460;7.150;2024-02-26T05:47:22;2.28;;;1.55;;
2928;SDS011;1474;51.460;7.150;2024-02-26T05:50:06;3.42;;;1.60;;
2928;SDS011;1474;51.460;7.150;2024-02-26T05:52:53;1.90;;;1.63;;
2928;SDS011;1474;51.460;7.150;2024-02-26T05:55:38;1.98;;;1.80;;
2928;SDS011;1474;51.460;7.150;2024-02-26T05:58:23;2.63;;;1.77;;
2928;SDS011;1474;51.460;7.150;2024-02-26T06:01:07;2.08;;;1.30;;
2928;SDS011;1474;51.460;7.150;2024-02-26T06:03:33;3.10;;;1.70;;
2928;SDS011;1474;51.460;7.150;2024-02-26T06:06:00;2.40;;;1.95;;
2928;SDS011;1474;51.460;7.150;2024-02-26T06:08:26;3.33;;;1.98;;
2928;SDS011;1474;51.460;7.150;2024-02-26T06:10:52;3.45;;;1.52;;
2928;SDS011;1474;51.460;7.150;2024-02-26T06:13:18;1.65;;;1.27;;
2928;SDS011;1474;51.460;7.150;2024-02-26T06:15:44;2.50;;;2.00;;
2928;SDS011;1474;51.460;7.150;2024-02-26T06:18:10;3.83;;;1.75;;
2928;SDS011;1474;51.460;7.150;2024-02-26T06:20:36;2.30;;;1.98;;
2928;SDS011;1474;51.460;7.150;2024-02-26T06:23:02;2.33;;;1.45;;
2928;SDS011;1474;51.460;7.150;2024-02-26T06:25:28;2.53;;;1.88;;
2928;SDS011;1474;51.460;7.150;2024-02-26T06:27:54;4.72;;;1.60;;
2928;SDS011;1474;51.460;7.150;2024-02-26T06:30:20;2.08;;;1.60;;
2928;SDS011;1474;51.460;7.150;2024-02-26T06:32:46;2.58;;;2.35;;
2928;SDS011;1474;51.460;7.150;2024-02-26T06:35:12;3.63;;;1.95;;
2928;SDS011;1474;51.460;7.150;2024-02-26T06:37:38;2.85;;;1.83;;
2928;SDS011;1474;51.460;7.150;2024-02-26T06:40:04;2.20;;;1.92;;
2928;SDS011;1474;51.460;7.150;2024-02-26T06:42:34;5.05;;;2.08;;
2928;SDS011;1474;51.460;7.150;2024-02-26T06:45:01;2.72;;;2.25;;
2928;SDS011;1474;51.460;7.150;2024-02-26T06:47:29;2.03;;;1.63;;
2928;SDS011;1474;51.460;7.150;2024-02-26T06:49:55;2.60;;;1.65;;
2928;SDS011;1474;51.460;7.150;2024-02-26T06:52:23;5.75;;;1.88;;
2928;SDS011;1474;51.460;7.150;2024-02-26T06:54:50;2.03;;;1.83;;
2928;SDS011;1474;51.460;7.150;2024-02-26T06:57:18;2.25;;;1.88;;
2928;SDS011;1474;51.460;7.150;2024-02-26T06:59:44;2.58;;;2.15;;
2928;SDS011;1474;51.460;7.150;2024-02-26T07:02:12;2.35;;;1.90;;
2928;SDS011;1474;51.460;7.150;2024-02-26T07:04:38;2.88;;;2.20;;
2928;SDS011;1474;51.460;7.150;2024-02-26T07:07:04;3.28;;;2.20;;
2928;SDS011;1474;51.460;7.150;2024-02-26T07:09:30;2.42;;;2.22;;
2928;SDS011;1474;51.460;7.150;2024-02-26T07:11:56;2.97;;;1.83;;
2928;SDS011;1474;51.460;7.150;2024-02-26T07:14:22;2.97;;;2.42;;
2928;SDS011;1474;51.460;7.150;2024-02-26T07:16:49;2.33;;;1.27;;
2928;SDS011;1474;51.460;7.150;2024-02-26T07:19:15;4.78;;;1.83;;
2928;SDS011;1474;51.460;7.150;2024-02-26T07:21:41;2.13;;;1.92;;
2928;SDS011;1474;51.460;7.150;2024-02-26T07:24:08;3.35;;;1.80;;
2928;SDS011;1474;51.460;7.150;2024-02-26T07:26:34;2.80;;;1.92;;
2928;SDS011;1474;51.460;7.150;2024-02-26T07:29:03;1.90;;;1.70;;
2928;SDS011;1474;51.460;7.150;2024-02-26T07:31:30;3.60;;;2.13;;
2928;SDS011;1474;51.460;7.150;2024-02-26T07:33:56;3.13;;;1.95;;
2928;SDS011;1474;51.460;7.150;2024-02-26T07:36:22;3.53;;;2.50;;
2928;SDS011;1474;51.460;7.150;2024-02-26T07:38:48;2.05;;;1.58;;
2928;SDS011;1474;51.460;7.150;2024-02-26T07:41:14;2.97;;;1.90;;
2928;SDS011;1474;51.460;7.150;2024-02-26T07:43:40;3.78;;;2.50;;
2928;SDS011;1474;51.460;7.150;2024-02-26T07:46:06;3.17;;;2.50;;
2928;SDS011;1474;51.460;7.150;2024-02-26T07:48:32;2.20;;;2.00;;
2928;SDS011;1474;51.460;7.150;2024-02-26T07:50:59;2.53;;;2.08;;
2928;SDS011;1474;51.460;7.150;2024-02-26T07:53:25;3.38;;;2.00;;
2928;SDS011;1474;51.460;7.150;2024-02-26T07:55:54;4.60;;;2.03;;
2928;SDS011;1474;51.460;7.150;2024-02-26T07:58:20;3.00;;;2.50;;
2928;SDS011;1474;51.460;7.150;2024-02-26T08:00:46;5.25;;;2.63;;
2928;SDS011;1474;51.460;7.150;2024-02-26T08:03:12;3.50;;;2.55;;
2928;SDS011;1474;51.460;7.150;2024-02-26T08:05:40;4.22;;;2.70;;
2928;SDS011;1474;51.460;7.150;2024-02-26T08:08:08;3.15;;;2.85;;
2928;SDS011;1474;51.460;7.150;2024-02-26T08:10:34;4.50;;;2.40;;
2928;SDS011;1474;51.460;7.150;2024-02-26T08:13:00;3.28;;;2.97;;
2928;SDS011;1474;51.460;7.150;2024-02-26T08:15:32;4.00;;;2.42;;
2928;SDS011;1474;51.460;7.150;2024-02-26T08:17:59;2.97;;;2.30;;
2928;SDS011;1474;51.460;7.150;2024-02-26T08:20:27;4.05;;;3.10;;
2928;SDS011;1474;51.460;7.150;2024-02-26T08:22:53;4.47;;;2.95;;
2928;SDS011;1474;51.460;7.150;2024-02-26T08:25:19;4.43;;;2.47;;
2928;SDS011;1474;51.460;7.150;2024-02-26T08:27:45;2.92;;;2.47;;
2928;SDS011;1474;51.460;7.150;2024-02-26T08:30:12;4.30;;;2.60;;
2928;SDS011;1474;51.460;7.150;2024-02-26T08:32:41;3.45;;;2.47;;
2928;SDS011;1474;51.460;7.150;2024-02-26T08:35:07;3.50;;;2.58;;
2928;SDS011;1474;51.460;7.150;2024-02-26T08:37:33;4.88;;;3.13;;
2928;SDS011;1474;51.460;7.150;2024-02-26T08:39:59;4.50;;;2.83;;
2928;SDS011;1474;51.460;7.150;2024-02-26T08:42:25;3.53;;;2.78;;
2928;SDS011;1474;51.460;7.150;2024-02-26T08:44:51;7.70;;;3.40;;
2928;SDS011;1474;51.460;7.150;2024-02-26T08:47:19;3.30;;;2.47;;
2928;SDS011;1474;51.460;7.150;2024-02-26T08:49:45;3.95;;;2.83;;
2928;SDS011;1474;51.460;7.150;2024-02-26T08:52:12;3.78;;;2.65;;
2928;SDS011;1474;51.460;7.150;2024-02-26T08:54:38;3.90;;;3.00;;
2928;SDS011;1474;51.460;7.150;2024-02-26T08:57:05;4.75;;;3.85;;
2928;SDS011;1474;51.460;7.150;2024-02-26T08:59:31;3.03;;;2.75;;
2928;SDS011;1474;51.460;7.150;2024-02-26T09:01:57;2.88;;;2.38;;
2928;SDS011;1474;51.460;7.150;2024-02-26T09:04:23;4.30;;;3.22;;
2928;SDS011;1474;51.460;7.150;2024-02-26T09:06:49;4.13;;;3.22;;
2928;SDS011;1474;51.460;7.150;2024-02-26T09:09:15;5.80;;;2.78;;
2928;SDS011;1474;51.460;7.150;2024-02-26T09:11:41;5.53;;;3.03;;
2928;SDS011;1474;51.460;7.150;2024-02-26T09:14:07;6.35;;;3.33;;
2928;SDS011;1474;51.460;7.150;2024-02-26T09:16:33;4.72;;;2.60;;
2928;SDS011;1474;51.460;7.150;2024-02-26T09:18:59;4.43;;;3.17;;
2928;SDS011;1474;51.460;7.150;2024-02-26T09:21:25;4.70;;;3.22;;
2928;SDS011;1474;51.460;7.150;2024-02-26T09:23:52;3.53;;;2.63;;
2928;SDS011;1474;51.460;7.150;2024-02-26T09:26:18;3.90;;;2.90;;
2928;SDS011;1474;51.460;7.150;2024-02-26T09:28:44;3.67;;;3.30;;
2928;SDS011;1474;51.460;7.150;2024-02-26T09:31:10;3.25;;;2.58;;
2928;SDS011;1474;51.460;7.150;2024-02-26T09:33:36;3.20;;;2.90;;
2928;SDS011;1474;51.460;7.150;2024-02-26T09:36:03;3.75;;;2.80;;
2928;SDS011;1474;51.460;7.150;2024-02-26T09:38:29;4.35;;;2.85;;
2928;SDS011;1474;51.460;7.150;2024-02-26T09:40:56;4.43;;;2.80;;
2928;SDS011;1474;51.460;7.150;2024-02-26T09:43:23;3.47;;;2.53;;
2928;SDS011;1474;51.460;7.150;2024-02-26T09:45:49;4.03;;;2.53;;
2928;SDS011;1474;51.460;7.150;2024-02-26T09:48:16;4.20;;;2.65;;
2928;SDS011;1474;51.460;7.150;2024-02-26T09:50:43;6.28;;;3.10;;
2928;SDS011;1474;51.460;7.150;2024-02-26T09:53:10;4.13;;;2.75;;
2928;SDS011;1474;51.460;7.150;2024-02-26T09:55:36;3.50;;;2.88;;
2928;SDS011;1474;51.460;7.150;2024-02-26T09:58:03;2.70;;;2.40;;
2928;SDS011;1474;51.460;7.150;2024-02-26T10:00:31;3.40;;;2.70;;
2928;SDS011;1474;51.460;7.150;2024-02-26T10:03:06;3.78;;;2.38;;
2928;SDS011;1474;51.460;7.150;2024-02-26T10:05:35;2.90;;;2.45;;
2928;SDS011;1474;51.460;7.150;2024-02-26T10:08:03;4.03;;;3.05;;
2928;SDS011;1474;51.460;7.150;2024-02-26T10:10:30;3.00;;;2.30;;
2928;SDS011;1474;51.460;7.150;2024-02-26T10:12:56;3.40;;;3.10;;
2928;SDS011;1474;51.460;7.150;2024-02-26T10:15:22;3.03;;;2.53;;
2928;SDS011;1474;51.460;7.150;2024-02-26T10:17:48;3.15;;;2.58;;
2928;SDS011;1474;51.460;7.150;2024-02-26T10:20:18;5.57;;;3.13;;
2928;SDS011;1474;51.460;7.150;2024-02-26T10:22:46;4.10;;;2.75;;
2928;SDS011;1474;51.460;7.150;2024-02-26T10:25:13;4.63;;;3.58;;
2928;SDS011;1474;51.460;7.150;2024-02-26T10:27:42;3.80;;;2.97;;
2928;SDS011;1474;51.460;7.150;2024-02-26T10:32:44;5.88;;;3.80;;
2928;SDS011;1474;51.460;7.150;2024-02-26T10:35:11;4.22;;;3.50;;
2928;SDS011;1474;51.460;7.150;2024-02-26T10:37:37;7.35;;;3.42;;
2928;SDS011;1474;51.460;7.150;2024-02-26T10:40:03;5.70;;;3.53;;
2928;SDS011;1474;51.460;7.150;2024-02-26T10:42:30;5.18;;;3.50;;
2928;SDS011;1474;51.460;7.150;2024-02-26T10:44:57;5.13;;;3.75;;
2928;SDS011;1474;51.460;7.150;2024-02-26T10:47:23;5.32;;;3.38;;
2928;SDS011;1474;51.460;7.150;2024-02-26T10:49:50;5.20;;;3.10;;
2928;SDS011;1474;51.460;7.150;2024-02-26T10:52:16;6.72;;;3.75;;
2928;SDS011;1474;51.460;7.150;2024-02-26T10:54:45;4.65;;;3.25;;
2928;SDS011;1474;51.460;7.150;2024-02-26T10:57:13;5.15;;;3.85;;
2928;SDS011;1474;51.460;7.150;2024-02-26T10:59:42;6.47;;;3.47;;
2928;SDS011;1474;51.460;7.150;2024-02-26T11:02:08;5.18;;;3.45;;
2928;SDS011;1474;51.460;7.150;2024-02-26T11:04:36;5.68;;;3.53;;
2928;SDS011;1474;51.460;7.150;2024-02-26T11:07:03;4.93;;;3.63;;
2928;SDS011;1474;51.460;7.150;2024-02-26T11:09:30;5.82;;;4.07;;
2928;SDS011;1474;51.460;7.150;2024-02-26T11:11:57;4.78;;;3.35;;
2928;SDS011;1474;51.460;7.150;2024-02-26T11:14:24;6.28;;;3.50;;
2928;SDS011;1474;51.460;7.150;2024-02-26T11:16:51;4.80;;;3.05;;
2928;SDS011;1474;51.460;7.150;2024-02-26T11:19:17;5.28;;;3.75;;
2928;SDS011;1474;51.460;7.150;2024-02-26T11:21:43;6.15;;;3.67;;
2928;SDS011;1474;51.460;7.150;2024-02-26T11:24:12;6.60;;;3.60;;
2928;SDS011;1474;51.460;7.150;2024-02-26T11:26:40;4.20;;;3.50;;
2928;SDS011;1474;51.460;7.150;2024-02-26T11:29:09;5.68;;;4.10;;
2928;SDS011;1474;51.460;7.150;2024-02-26T11:31:36;6.32;;;4.10;;
2928;SDS011;1474;51.460;7.150;2024-02-26T11:34:03;6.82;;;3.83;;
2928;SDS011;1474;51.460;7.150;2024-02-26T11:36:29;4.32;;;3.63;;
2928;SDS011;1474;51.460;7.150;2024-02-26T11:38:57;4.63;;;3.33;;
2928;SDS011;1474;51.460;7.150;2024-02-26T11:41:24;4.60;;;3.50;;
2928;SDS011;1474;51.460;7.150;2024-02-26T11:43:57;4.95;;;2.80;;
2928;SDS011;1474;51.460;7.150;2024-02-26T11:46:30;4.78;;;3.55;;
2928;SDS011;1474;51.460;7.150;2024-02-26T11:49:00;5.30;;;3.63;;
2928;SDS011;1474;51.460;7.150;2024-02-26T11:51:27;5.43;;;3.40;;
2928;SDS011;1474;51.460;7.150;2024-02-26T11:53:53;4.15;;;3.13;;
2928;SDS011;1474;51.460;7.150;2024-02-26T11:56:22;5.90;;;3.55;;
2928;SDS011;1474;51.460;7.150;2024-02-26T12:01:50;5.05;;;3.78;;
2928;SDS011;1474;51.460;7.150;2024-02-26T12:04:24;4.72;;;3.80;;
2928;SDS011;1474;51.460;7.150;2024-02-26T12:06:52;6.47;;;4.50;;
2928;SDS011;1474;51.460;7.150;2024-02-26T12:11:56;7.35;;;4.40;;
2928;SDS011;1474;51.460;7.150;2024-02-26T12:14:26;6.35;;;4.20;;
2928;SDS011;1474;51.460;7.150;2024-02-26T12:16:52;4.88;;;4.20;;
2928;SDS011;1474;51.460;7.150;2024-02-26T12:19:18;5.07;;;3.80;;
2928;SDS011;1474;51.460;7.150;2024-02-26T12:21:44;6.97;;;4.93;;
2928;SDS011;1474;51.460;7.150;2024-02-26T12:26:46;5.32;;;3.83;;
2928;SDS011;1474;51.460;7.150;2024-02-26T12:29:12;8.68;;;4.85;;
2928;SDS011;1474;51.460;7.150;2024-02-26T12:31:39;8.02;;;4.55;;
2928;SDS011;1474;51.460;7.150;2024-02-26T12:34:06;8.18;;;5.70;;
2928;SDS011;1474;51.460;7.150;2024-02-26T12:36:33;5.93;;;4.47;;
2928;SDS011;1474;51.460;7.150;2024-02-26T12:39:00;6.60;;;4.63;;
2928;SDS011;1474;51.460;7.150;2024-02-26T12:41:27;4.65;;;3.42;;
2928;SDS011;1474;51.460;7.150;2024-02-26T12:43:55;6.75;;;3.92;;
2928;SDS011;1474;51.460;7.150;2024-02-26T12:46:21;5.85;;;4.80;;
2928;SDS011;1474;51.460;7.150;2024-02-26T12:48:47;5.45;;;4.75;;
2928;SDS011;1474;51.460;7.150;2024-02-26T12:51:14;5.93;;;4.63;;
2928;SDS011;1474;51.460;7.150;2024-02-26T12:53:41;6.53;;;4.63;;
2928;SDS011;1474;51.460;7.150;2024-02-26T12:56:07;5.40;;;4.00;;
2928;SDS011;1474;51.460;7.150;2024-02-26T12:58:34;9.73;;;4.13;;
2928;SDS011;1474;51.460;7.150;2024-02-26T13:01:01;5.50;;;3.58;;
2928;SDS011;1474;51.460;7.150;2024-02-26T13:03:27;6.22;;;3.60;;
2928;SDS011;1474;51.460;7.150;2024-02-26T13:05:53;5.20;;;3.60;;
2928;SDS011;1474;51.460;7.150;2024-02-26T13:08:20;4.13;;;3.17;;
2928;SDS011;1474;51.460;7.150;2024-02-26T13:10:47;5.78;;;3.75;;
2928;SDS011;1474;51.460;7.150;2024-02-26T13:13:17;5.25;;;3.58;;
2928;SDS011;1474;51.460;7.150;2024-02-26T13:15:43;5.43;;;4.07;;
2928;SDS011;1474;51.460;7.150;2024-02-26T13:18:10;6.03;;;3.97;;
2928;SDS011;1474;51.460;7.150;2024-02-26T13:20:36;5.97;;;4.10;;
2928;SDS011;1474;51.460;7.150;2024-02-26T13:23:06;5.03;;;3.17;;
2928;SDS011;1474;51.460;7.150;2024-02-26T13:25:32;5.32;;;3.88;;
2928;SDS011;1474;51.460;7.150;2024-02-26T13:28:16;5.88;;;3.97;;
2928;SDS011;1474;51.460;7.150;2024-02-26T13:30:52;5.13;;;3.95;;
2928;SDS011;1474;51.460;7.150;2024-02-26T13:33:21;5.88;;;3.40;;
2928;SDS011;1474;51.460;7.150;2024-02-26T13:35:47;4.93;;;3.25;;
2928;SDS011;1474;51.460;7.150;2024-02-26T13:38:13;5.50;;;3.17;;
2928;SDS011;1474;51.460;7.150;2024-02-26T13:40:40;4.20;;;3.65;;
2928;SDS011;1474;51.460;7.150;2024-02-26T13:43:06;5.38;;;3.15;;
2928;SDS011;1474;51.460;7.150;2024-02-26T13:45:36;6.28;;;3.47;;
2928;SDS011;1474;51.460;7.150;2024-02-26T13:48:03;4.05;;;3.35;;
2928;SDS011;1474;51.460;7.150;2024-02-26T13:50:29;4.32;;;2.83;;
2928;SDS011;1474;51.460;7.150;2024-02-26T13:52:55;5.43;;;3.45;;
2928;SDS011;1474;51.460;7.150;2024-02-26T13:55:22;4.38;;;3.38;;
2928;SDS011;1474;51.460;7.150;2024-02-26T13:57:51;5.20;;;3.95;;
2928;SDS011;1474;51.460;7.150;2024-02-26T14:00:19;4.10;;;2.60;;
2928;SDS011;1474;51.460;7.150;2024-02-26T14:02:45;5.03;;;2.80;;
2928;SDS011;1474;51.460;7.150;2024-02-26T14:05:11;4.68;;;2.97;;
2928;SDS011;1474;51.460;7.150;2024-02-26T14:07:37;4.97;;;3.13;;
2928;SDS011;1474;51.460;7.150;2024-02-26T14:10:03;6.28;;;3.83;;
2928;SDS011;1474;51.460;7.150;2024-02-26T14:12:30;3.28;;;2.90;;
2928;SDS011;1474;51.460;7.150;2024-02-26T14:14:56;4.15;;;3.05;;
2928;SDS011;1474;51.460;7.150;2024-02-26T14:17:25;3.35;;;3.00;;
2928;SDS011;1474;51.460;7.150;2024-02-26T14:19:51;5.45;;;3.83;;
2928;SDS011;1474;51.460;7.150;2024-02-26T14:22:17;5.78;;;3.25;;
2928;SDS011;1474;51.460;7.150;2024-02-26T14:24:43;3.67;;;2.80;;
2928;SDS011;1474;51.460;7.150;2024-02-26T14:27:10;4.60;;;2.95;;
2928;SDS011;1474;51.460;7.150;2024-02-26T14:29:39;4.80;;;2.93;;
2928;SDS011;1474;51.460;7.150;2024-02-26T14:32:07;6.78;;;3.10;;
2928;SDS011;1474;51.460;7.150;2024-02-26T14:34:33;5.50;;;2.90;;
2928;SDS011;1474;51.460;7.150;2024-02-26T14:36:59;3.28;;;2.80;;
2928;SDS011;1474;51.460;7.150;2024-02-26T14:39:25;4.50;;;3.35;;
2928;SDS011;1474;51.460;7.150;2024-02-26T14:41:51;3.13;;;2.75;;
2928;SDS011;1474;51.460;7.150;2024-02-26T14:44:17;2.90;;;2.25;;
2928;SDS011;1474;51.460;7.150;2024-02-26T14:46:43;4.72;;;3.42;;
2928;SDS011;1474;51.460;7.150;2024-02-26T14:49:09;3.78;;;2.78;;
2928;SDS011;1474;51.460;7.150;2024-02-26T14:51:37;3.78;;;3.00;;
2928;SDS011;1474;51.460;7.150;2024-02-26T14:54:03;6.03;;;3.20;;
2928;SDS011;1474;51.460;7.150;2024-02-26T14:56:29;4.60;;;2.70;;
2928;SDS011;1474;51.460;7.150;2024-02-26T14:58:55;7.45;;;3.55;;
2928;SDS011;1474;51.460;7.150;2024-02-26T15:01:21;4.43;;;3.30;;
2928;SDS011;1474;51.460;7.150;2024-02-26T15:03:47;3.78;;;2.65;;
2928;SDS011;1474;51.460;7.150;2024-02-26T15:06:13;4.28;;;2.80;;
2928;SDS011;1474;51.460;7.150;2024-02-26T15:08:39;4.18;;;2.67;;
2928;SDS011;1474;51.460;7.150;2024-02-26T15:11:05;3.05;;;2.65;;
2928;SDS011;1474;51.460;7.150;2024-02-26T15:13:32;3.30;;;2.45;;
2928;SDS011;1474;51.460;7.150;2024-02-26T15:15:58;4.13;;;3.28;;
2928;SDS011;1474;51.460;7.150;2024-02-26T15:18:24;4.20;;;2.45;;
2928;SDS011;1474;51.460;7.150;2024-02-26T15:20:50;2.60;;;2.00;;
2928;SDS011;1474;51.460;7.150;2024-02-26T15:23:17;3.67;;;2.67;;
2928;SDS011;1474;51.460;7.150;2024-02-26T15:25:43;3.78;;;2.55;;
2928;SDS011;1474;51.460;7.150;2024-02-26T15:28:09;4.55;;;2.50;;
2928;SDS011;1474;51.460;7.150;2024-02-26T15:30:36;4.07;;;2.28;;
2928;SDS011;1474;51.460;7.150;2024-02-26T15:33:02;3.58;;;2.00;;
2928;SDS011;1474;51.460;7.150;2024-02-26T15:35:28;3.10;;;2.30;;
2928;SDS011;1474;51.460;7.150;2024-02-26T15:37:55;2.47;;;1.73;;
2928;SDS011;1474;51.460;7.150;2024-02-26T15:40:22;2.65;;;1.73;;
2928;SDS011;1474;51.460;7.150;2024-02-26T15:42:48;2.30;;;2.10;;
2928;SDS011;1474;51.460;7.150;2024-02-26T15:45:15;2.47;;;2.20;;
2928;SDS011;1474;51.460;7.150;2024-02-26T15:47:41;3.50;;;2.33;;
2928;SDS011;1474;51.460;7.150;2024-02-26T15:50:07;2.70;;;2.10;;
2928;SDS011;1474;51.460;7.150;2024-02-26T15:52:35;2.75;;;2.33;;
2928;SDS011;1474;51.460;7.150;2024-02-26T15:55:02;3.22;;;2.33;;
2928;SDS011;1474;51.460;7.150;2024-02-26T15:57:29;2.90;;;2.05;;
2928;SDS011;1474;51.460;7.150;2024-02-26T15:59:55;2.70;;;2.47;;
2928;SDS011;1474;51.460;7.150;2024-02-26T16:02:25;3.67;;;2.10;;